createdAt,value
2023-06-10T00:00:23.777Z,10.85
2023-06-10T00:03:26.640Z,9.75
2023-06-10T00:06:29.576Z,9.90
2023-06-10T00:09:31.713Z,10.30
2023-06-10T00:12:38.205Z,9.38
2023-06-10T00:15:40.683Z,10.13
2023-06-10T00:18:42.955Z,9.77
2023-06-10T00:21:45.903Z,9.57
2023-06-10T00:24:48.774Z,10.02
2023-06-10T00:27:50.742Z,9.82
2023-06-10T00:30:52.798Z,10.45
2023-06-10T00:33:55.018Z,9.68
2023-06-10T00:36:57.034Z,10.07
2023-06-10T00:39:59.439Z,9.43
2023-06-10T00:43:01.374Z,11.55
2023-06-10T00:46:03.653Z,10.55
2023-06-10T00:49:07.071Z,10.55
2023-06-10T00:52:11.206Z,8.93
2023-06-10T00:55:13.372Z,13.25
2023-06-10T00:58:17.216Z,9.38
2023-06-10T01:01:21.249Z,8.75
2023-06-10T01:04:24.923Z,9.55
2023-06-10T01:07:38.513Z,9.00
2023-06-10T01:11:11.213Z,9.10
2023-06-10T01:14:15.402Z,9.95
2023-06-10T01:17:19.339Z,11.50
2023-06-10T01:20:21.385Z,10.70
2023-06-10T01:23:23.419Z,12.77
2023-06-10T01:26:33.381Z,9.25
2023-06-10T01:29:45.835Z,9.27
2023-06-10T01:32:52.473Z,10.20
2023-06-10T01:35:56.469Z,12.10
2023-06-10T01:39:00.090Z,9.77
2023-06-10T01:42:03.666Z,9.70
2023-06-10T01:45:07.057Z,9.40
2023-06-10T01:48:09.224Z,9.88
2023-06-10T01:51:11.286Z,11.18
2023-06-10T01:54:13.289Z,9.73
2023-06-10T01:57:15.356Z,10.57
2023-06-10T02:00:17.815Z,11.50
2023-06-10T02:03:20.901Z,9.85
2023-06-10T02:06:23.216Z,9.45
2023-06-10T02:09:26.313Z,11.80
2023-06-10T02:12:28.306Z,11.68
2023-06-10T02:15:30.332Z,11.65
2023-06-10T02:18:32.644Z,12.05
2023-06-10T02:21:35.555Z,9.52
2023-06-10T02:24:40.947Z,11.37
2023-06-10T02:27:42.925Z,9.32
2023-06-10T02:30:45.165Z,8.60
2023-06-10T02:33:47.508Z,10.07
2023-06-10T02:36:52.443Z,9.25
2023-06-10T02:39:57.118Z,10.37
2023-06-10T02:42:59.931Z,9.00
2023-06-10T02:46:02.693Z,8.77
2023-06-10T02:49:06.503Z,10.27
2023-06-10T02:52:09.341Z,11.77
2023-06-10T02:55:12.034Z,8.77
2023-06-10T02:58:16.655Z,10.20
2023-06-10T03:01:20.043Z,11.25
2023-06-10T03:04:38.832Z,10.13
2023-06-10T03:07:47.532Z,12.77
2023-06-10T03:10:51.495Z,11.40
2023-06-10T03:13:55.185Z,11.52
2023-06-10T03:16:57.731Z,12.75
2023-06-10T03:20:01.084Z,13.00
2023-06-10T03:23:03.161Z,15.63
2023-06-10T03:26:06.024Z,12.33
2023-06-10T03:29:09.642Z,14.23
2023-06-10T03:32:11.691Z,14.25
2023-06-10T03:35:15.867Z,12.95
2023-06-10T03:38:17.849Z,12.25
2023-06-10T03:41:20.477Z,14.43
2023-06-10T03:44:23.108Z,10.05
2023-06-10T03:47:25.091Z,10.95
2023-06-10T03:50:27.878Z,12.05
2023-06-10T03:53:29.914Z,11.60
2023-06-10T03:56:32.696Z,10.53
2023-06-10T03:59:34.694Z,10.90
2023-06-10T04:02:37.972Z,11.93
2023-06-10T04:05:40.056Z,10.88
2023-06-10T04:08:43.895Z,10.05
2023-06-10T04:11:45.933Z,12.60
2023-06-10T04:14:48.181Z,13.10
2023-06-10T04:17:50.599Z,11.95
2023-06-10T04:20:54.762Z,12.43
2023-06-10T04:23:56.855Z,14.90
2023-06-10T04:26:59.212Z,16.47
2023-06-10T04:30:01.470Z,20.00
2023-06-10T04:33:04.992Z,24.77
2023-06-10T04:36:07.964Z,25.33
2023-06-10T04:39:11.542Z,24.95
2023-06-10T04:42:13.946Z,24.70
2023-06-10T04:45:16.930Z,31.83
2023-06-10T04:48:19.179Z,26.70
2023-06-10T04:51:21.302Z,29.02
2023-06-10T04:54:23.304Z,26.88
2023-06-10T04:57:25.607Z,26.07
2023-06-10T05:00:27.625Z,25.25
2023-06-10T05:03:29.677Z,24.48
2023-06-10T05:06:31.732Z,26.80
2023-06-10T05:09:34.179Z,27.02
2023-06-10T05:12:36.160Z,23.43
2023-06-10T05:15:38.476Z,24.70
2023-06-10T05:18:40.466Z,27.20
2023-06-10T05:21:42.601Z,26.08
2023-06-10T05:24:45.356Z,25.20
2023-06-10T05:27:47.393Z,27.13
2023-06-10T05:30:49.311Z,28.38
2023-06-10T05:33:52.574Z,27.42
2023-06-10T05:36:54.538Z,22.95
2023-06-10T05:39:56.592Z,27.15
2023-06-10T05:42:58.823Z,24.50
2023-06-10T05:46:00.996Z,25.73
2023-06-10T05:49:02.932Z,22.42
2023-06-10T05:52:05.337Z,22.75
2023-06-10T05:55:07.872Z,25.05
2023-06-10T05:58:10.226Z,27.53
2023-06-10T06:01:12.311Z,23.08
2023-06-10T06:04:14.516Z,22.58
2023-06-10T06:07:16.727Z,23.05
2023-06-10T06:10:19.702Z,26.27
2023-06-10T06:13:21.742Z,23.23
2023-06-10T06:16:23.764Z,22.45
2023-06-10T06:19:25.788Z,24.20
2023-06-10T06:22:27.786Z,22.02
2023-06-10T06:25:29.835Z,23.50
2023-06-10T06:28:32.547Z,26.07
2023-06-10T06:31:35.611Z,23.48
2023-06-10T06:34:37.656Z,23.15
2023-06-10T06:37:39.765Z,24.33
2023-06-10T06:40:56.384Z,25.17
2023-06-10T06:43:58.577Z,24.33
2023-06-10T06:47:14.435Z,22.33
2023-06-10T06:50:17.594Z,26.67
2023-06-10T06:53:19.781Z,26.52
2023-06-10T06:56:22.424Z,25.23
2023-06-10T06:59:24.916Z,27.63
2023-06-10T07:02:26.903Z,26.55
2023-06-10T07:05:29.064Z,29.08
2023-06-10T07:08:31.180Z,26.73
2023-06-10T07:11:33.253Z,24.88
2023-06-10T07:14:35.380Z,28.93
2023-06-10T07:17:37.404Z,28.83
2023-06-10T07:20:39.459Z,26.50
2023-06-10T07:23:44.981Z,22.88
2023-06-10T07:26:47.125Z,19.70
2023-06-10T07:29:49.198Z,17.60
2023-06-10T07:32:52.558Z,19.90
2023-06-10T07:35:54.555Z,19.17
2023-06-10T07:38:56.753Z,18.00
2023-06-10T07:41:58.751Z,19.52
2023-06-10T07:45:01.489Z,20.37
2023-06-10T07:48:03.726Z,21.70
2023-06-10T07:51:05.842Z,18.88
2023-06-10T07:54:07.893Z,19.77
2023-06-10T07:57:09.924Z,20.17
2023-06-10T08:00:12.248Z,16.63
2023-06-10T08:03:17.188Z,16.67
2023-06-10T08:06:19.301Z,15.50
2023-06-10T08:09:22.656Z,16.45
2023-06-10T08:12:24.770Z,15.85
2023-06-10T08:15:26.740Z,16.30
2023-06-10T08:18:28.847Z,18.50
2023-06-10T08:21:30.842Z,14.40
2023-06-10T08:24:33.754Z,15.30
2023-06-10T08:27:35.702Z,11.50
2023-06-10T08:30:37.780Z,14.03
2023-06-10T08:33:39.830Z,13.63
2023-06-10T08:36:41.920Z,14.00
2023-06-10T08:39:43.915Z,12.27
2023-06-10T08:42:54.164Z,12.27
2023-06-10T08:46:01.455Z,12.63
2023-06-10T08:49:06.718Z,12.40
2023-06-10T08:52:10.238Z,13.35
2023-06-10T08:55:16.446Z,11.70
2023-06-10T08:58:19.039Z,12.70
2023-06-10T09:01:21.292Z,10.67
2023-06-10T09:04:25.853Z,8.73
2023-06-10T09:07:28.127Z,7.80
2023-06-10T09:10:30.894Z,6.97
2023-06-10T09:13:32.963Z,6.30
2023-06-10T09:16:35.625Z,6.57
2023-06-10T09:19:39.719Z,6.55
2023-06-10T09:22:43.618Z,5.50
2023-06-10T09:25:45.735Z,4.80
2023-06-10T09:28:53.862Z,5.85
2023-06-10T09:31:56.309Z,5.23
2023-06-10T09:34:58.899Z,5.40
2023-06-10T09:38:03.442Z,5.88
2023-06-10T09:41:05.523Z,6.35
2023-06-10T09:44:20.153Z,5.47
2023-06-10T09:47:23.746Z,7.97
2023-06-10T09:50:27.554Z,6.10
2023-06-10T09:53:32.152Z,6.47
2023-06-10T09:56:36.397Z,6.80
2023-06-10T09:59:39.339Z,5.70
2023-06-10T10:02:50.171Z,7.10
2023-06-10T10:06:00.653Z,7.50
2023-06-10T10:09:05.066Z,5.63
2023-06-10T10:12:17.341Z,5.88
2023-06-10T10:15:19.828Z,6.47
2023-06-10T10:18:30.188Z,5.67
2023-06-10T10:21:38.203Z,8.32
2023-06-10T10:24:46.987Z,5.15
2023-06-10T10:27:52.049Z,5.95
2023-06-10T10:30:59.092Z,5.68
2023-06-10T10:34:03.871Z,6.47
2023-06-10T10:37:06.041Z,6.15
2023-06-10T10:40:08.972Z,9.07
2023-06-10T10:43:11.843Z,5.68
2023-06-10T10:46:15.627Z,7.20
2023-06-10T10:49:19.379Z,4.90
2023-06-10T10:52:21.700Z,5.45
2023-06-10T10:55:24.939Z,5.68
2023-06-10T10:58:27.301Z,6.07
2023-06-10T11:01:46.932Z,6.22
2023-06-10T11:04:49.986Z,8.77
2023-06-10T11:07:59.648Z,8.90
2023-06-10T11:11:01.897Z,9.73
2023-06-10T11:14:05.479Z,8.65
2023-06-10T11:17:19.986Z,9.50
2023-06-10T11:20:49.912Z,7.67
2023-06-10T11:23:53.587Z,8.63
2023-06-10T11:26:55.595Z,6.95
2023-06-10T11:30:01.080Z,7.00
2023-06-10T11:33:03.313Z,6.57
2023-06-10T11:36:08.975Z,7.70
2023-06-10T11:39:11.624Z,6.43
2023-06-10T11:42:13.919Z,6.10
2023-06-10T11:45:19.825Z,5.10
2023-06-10T11:48:21.840Z,6.45
2023-06-10T11:51:27.169Z,4.60
2023-06-10T11:54:29.192Z,5.90
2023-06-10T11:57:31.184Z,4.72
2023-06-10T12:00:33.609Z,5.03
2023-06-10T12:03:39.416Z,4.28
2023-06-10T12:06:52.118Z,4.47
2023-06-10T12:10:06.628Z,4.63
2023-06-10T12:13:11.263Z,5.32
2023-06-10T12:16:13.465Z,4.15
2023-06-10T12:19:15.484Z,4.50
2023-06-10T12:22:17.768Z,3.70
2023-06-10T12:25:29.150Z,3.63
2023-06-10T12:28:31.102Z,3.70
2023-06-10T12:31:33.114Z,3.70
2023-06-10T12:34:40.453Z,3.85
2023-06-10T12:37:45.324Z,3.20
2023-06-10T12:40:47.375Z,4.22
2023-06-10T12:43:49.477Z,3.63
2023-06-10T12:46:56.765Z,3.72
2023-06-10T12:50:00.006Z,5.38
2023-06-10T12:53:02.696Z,4.30
2023-06-10T12:56:04.711Z,4.10
2023-06-10T12:59:07.024Z,4.53
2023-06-10T13:02:09.646Z,4.93
2023-06-10T13:05:14.357Z,4.25
2023-06-10T13:08:18.596Z,4.67
2023-06-10T13:11:20.588Z,4.88
2023-06-10T13:14:22.882Z,4.32
2023-06-10T13:17:25.601Z,5.72
2023-06-10T13:20:27.704Z,4.82
2023-06-10T13:23:29.807Z,4.27
2023-06-10T13:26:31.888Z,5.00
2023-06-10T13:29:34.048Z,4.60
2023-06-10T13:32:36.955Z,4.88
2023-06-10T13:35:39.232Z,5.63
2023-06-10T13:38:41.313Z,6.17
2023-06-10T13:41:43.403Z,4.95
2023-06-10T13:44:45.463Z,4.78
2023-06-10T13:47:47.753Z,4.65
2023-06-10T13:50:49.868Z,4.50
2023-06-10T13:53:52.955Z,4.07
2023-06-10T13:56:55.071Z,3.85
2023-06-10T13:59:57.611Z,3.88
2023-06-10T14:02:59.869Z,4.53
2023-06-10T14:06:01.952Z,5.72
2023-06-10T14:09:04.384Z,4.53
2023-06-10T14:12:07.522Z,4.75
2023-06-10T14:15:09.932Z,4.65
2023-06-10T14:18:12.372Z,5.63
2023-06-10T14:21:14.473Z,5.95
2023-06-10T14:24:16.578Z,4.47
2023-06-10T14:27:18.736Z,3.58
2023-06-10T14:30:20.959Z,4.25
2023-06-10T14:33:23.011Z,5.05
2023-06-10T14:36:25.200Z,4.25
2023-06-10T14:39:27.643Z,3.33
2023-06-10T14:42:29.576Z,3.78
2023-06-10T14:48:33.697Z,5.72
2023-06-10T14:51:37.000Z,6.25
2023-06-10T14:54:39.137Z,6.00
2023-06-10T14:57:41.149Z,4.88
2023-06-10T15:00:43.243Z,5.82
2023-06-10T15:03:45.878Z,5.68
2023-06-10T15:06:49.762Z,4.90
2023-06-10T15:09:51.912Z,5.93
2023-06-10T15:12:56.963Z,14.73
2023-06-10T15:16:01.061Z,5.47
2023-06-10T15:19:09.423Z,4.65
2023-06-10T15:22:12.972Z,6.18
2023-06-10T15:28:20.193Z,6.20
2023-06-10T15:31:22.270Z,5.60
2023-06-10T15:34:24.346Z,6.25
2023-06-10T15:37:26.288Z,5.68
2023-06-10T15:40:28.320Z,6.07
2023-06-10T15:43:30.625Z,6.15
2023-06-10T15:46:32.883Z,6.57
2023-06-10T15:49:34.953Z,7.78
2023-06-10T15:52:37.165Z,6.70
2023-06-10T15:55:39.145Z,6.40
2023-06-10T15:58:41.374Z,8.18
2023-06-10T16:01:43.480Z,8.43
2023-06-10T16:04:45.643Z,6.05
2023-06-10T16:07:47.802Z,7.53
2023-06-10T16:10:50.217Z,6.33
2023-06-10T16:13:52.276Z,6.30
2023-06-10T16:16:54.266Z,6.25
2023-06-10T16:19:56.340Z,6.45
2023-06-10T16:22:58.341Z,6.78
2023-06-10T16:26:00.278Z,8.37
2023-06-10T16:29:02.265Z,7.65
2023-06-10T16:32:04.586Z,6.60
2023-06-10T16:35:06.926Z,5.72
2023-06-10T16:38:09.165Z,6.63
2023-06-10T16:41:11.169Z,6.47
2023-06-10T16:44:13.837Z,6.10
2023-06-10T16:47:16.177Z,6.40
2023-06-10T16:50:20.481Z,8.10
2023-06-10T16:53:22.539Z,6.45
2023-06-10T16:56:24.497Z,6.40
2023-06-10T16:59:26.440Z,6.32
2023-06-10T17:02:28.467Z,5.00
2023-06-10T17:05:30.864Z,6.70
2023-06-10T17:08:32.908Z,5.50
2023-06-10T17:11:34.902Z,5.97
2023-06-10T17:14:37.025Z,5.40
2023-06-10T17:17:39.088Z,5.90
2023-06-10T17:20:41.132Z,6.13
2023-06-10T17:23:43.132Z,6.00
2023-06-10T17:26:45.138Z,6.73
2023-06-10T17:29:47.126Z,7.07
2023-06-10T17:32:50.821Z,6.57
2023-06-10T17:35:52.978Z,6.72
2023-06-10T17:38:54.959Z,7.20
2023-06-10T17:41:56.918Z,6.47
2023-06-10T17:44:58.819Z,5.78
2023-06-10T17:48:01.086Z,7.55
2023-06-10T17:51:03.216Z,5.65
2023-06-10T17:54:07.857Z,7.22
2023-06-10T17:57:09.902Z,5.67
2023-06-10T18:00:12.323Z,7.03
2023-06-10T18:03:16.607Z,8.20
2023-06-10T18:06:18.839Z,7.05
2023-06-10T18:09:22.684Z,7.25
2023-06-10T18:12:24.814Z,7.97
2023-06-10T18:15:27.717Z,7.88
2023-06-10T18:18:29.949Z,6.60
2023-06-10T18:21:31.971Z,6.55
2023-06-10T18:24:34.038Z,7.80
2023-06-10T18:27:36.114Z,6.23
2023-06-10T18:30:38.071Z,7.45
2023-06-10T18:33:40.176Z,7.40
2023-06-10T18:36:42.312Z,8.50
2023-06-10T18:39:44.336Z,10.15
2023-06-10T18:42:46.367Z,8.63
2023-06-10T18:45:48.579Z,8.05
2023-06-10T18:48:51.319Z,7.00
2023-06-10T18:51:53.348Z,7.90
2023-06-10T18:54:55.507Z,7.88
2023-06-10T18:57:57.606Z,6.60
2023-06-10T19:01:01.256Z,8.07
2023-06-10T19:04:04.280Z,6.82
2023-06-10T19:07:06.379Z,7.57
2023-06-10T19:10:08.813Z,6.65
2023-06-10T19:13:10.955Z,7.80
2023-06-10T19:16:13.021Z,7.05
2023-06-10T19:19:15.268Z,7.53
2023-06-10T19:22:17.304Z,8.00
2023-06-10T19:25:20.307Z,7.10
2023-06-10T19:28:24.281Z,7.80
2023-06-10T19:31:26.358Z,8.55
2023-06-10T19:34:28.532Z,7.63
2023-06-10T19:37:31.119Z,7.28
2023-06-10T19:40:33.154Z,8.10
2023-06-10T19:43:35.149Z,6.23
2023-06-10T19:46:37.114Z,7.00
2023-06-10T19:49:39.119Z,7.50
2023-06-10T19:52:41.391Z,8.25
2023-06-10T19:55:43.523Z,7.10
2023-06-10T19:58:47.480Z,6.20
2023-06-10T20:01:49.804Z,6.78
2023-06-10T20:04:52.718Z,7.47
2023-06-10T20:07:55.052Z,7.43
2023-06-10T20:10:57.106Z,8.05
2023-06-10T20:13:59.167Z,7.87
2023-06-10T20:17:01.350Z,6.90
2023-06-10T20:20:04.860Z,8.73
2023-06-10T20:23:07.018Z,6.88
2023-06-10T20:26:09.003Z,7.00
2023-06-10T20:29:11.245Z,6.83
2023-06-10T20:32:13.286Z,8.27
2023-06-10T20:35:15.350Z,11.18
2023-06-10T20:38:17.332Z,8.55
2023-06-10T20:41:19.466Z,9.75
2023-06-10T20:44:21.568Z,11.37
2023-06-10T20:47:23.855Z,8.43
2023-06-10T20:50:26.049Z,8.88
2023-06-10T20:53:28.092Z,11.77
2023-06-10T20:56:30.535Z,8.45
2023-06-10T20:59:35.170Z,8.57
2023-06-10T21:02:37.211Z,9.30
2023-06-10T21:05:39.211Z,9.63
2023-06-10T21:08:41.230Z,10.63
2023-06-10T21:11:43.652Z,9.50
2023-06-10T21:14:45.646Z,8.17
2023-06-10T21:17:47.708Z,8.20
2023-06-10T21:20:49.817Z,9.85
2023-06-10T21:23:53.591Z,11.95
2023-06-10T21:26:55.591Z,8.55
2023-06-10T21:29:58.056Z,8.23
2023-06-10T21:33:00.658Z,8.15
2023-06-10T21:36:02.764Z,8.15
2023-06-10T21:39:05.051Z,8.50
2023-06-10T21:42:07.417Z,9.40
2023-06-10T21:45:10.097Z,8.20
2023-06-10T21:48:12.545Z,11.65
2023-06-10T21:51:14.616Z,10.77
2023-06-10T21:54:16.651Z,8.57
2023-06-10T21:57:18.693Z,10.57
2023-06-10T22:00:20.978Z,11.67
2023-06-10T22:03:23.131Z,9.35
2023-06-10T22:06:25.859Z,8.55
2023-06-10T22:09:28.018Z,13.25
2023-06-10T22:12:30.078Z,9.98
2023-06-10T22:15:32.151Z,13.10
2023-06-10T22:18:34.377Z,10.43
2023-06-10T22:21:37.571Z,11.30
2023-06-10T22:24:39.675Z,11.13
2023-06-10T22:27:41.605Z,10.50
2023-06-10T22:30:43.733Z,11.03
2023-06-10T22:33:45.723Z,11.30
2023-06-10T22:36:47.793Z,10.65
2023-06-10T22:39:49.791Z,10.20
2023-06-10T22:42:51.774Z,12.23
2023-06-10T22:45:53.813Z,11.20
2023-06-10T22:48:55.863Z,13.30
2023-06-10T22:51:57.862Z,12.73
2023-06-10T22:54:59.884Z,10.13
2023-06-10T22:58:01.876Z,11.68
2023-06-10T23:01:03.975Z,14.63
2023-06-10T23:04:06.114Z,11.23
2023-06-10T23:07:10.378Z,12.65
2023-06-10T23:10:12.461Z,10.77
2023-06-10T23:13:14.718Z,12.30
2023-06-10T23:16:16.848Z,11.53
2023-06-10T23:19:23.223Z,10.88
2023-06-10T23:22:25.865Z,12.07
2023-06-10T23:25:29.015Z,11.43
2023-06-10T23:28:31.164Z,14.20
2023-06-10T23:31:33.155Z,10.33
2023-06-10T23:34:35.333Z,9.90
2023-06-10T23:37:37.544Z,12.10
2023-06-10T23:40:39.514Z,12.45
2023-06-10T23:43:41.472Z,13.38
2023-06-10T23:46:43.515Z,10.40
2023-06-10T23:49:46.066Z,11.20
2023-06-10T23:52:48.058Z,11.77
2023-06-10T23:55:50.046Z,10.32
2023-06-10T23:58:52.141Z,12.07
